createdAt,value
2022-10-31T00:01:33.794Z,60.25
2022-10-31T00:04:34.679Z,55.13
2022-10-31T00:07:35.511Z,61.10
2022-10-31T00:10:40.072Z,57.92
2022-10-31T00:13:41.056Z,52.30
2022-10-31T00:16:42.757Z,47.25
2022-10-31T00:19:43.795Z,54.55
2022-10-31T00:22:44.601Z,43.03
2022-10-31T00:25:45.453Z,40.90
2022-10-31T00:28:46.576Z,30.48
2022-10-31T00:31:47.844Z,29.05
2022-10-31T00:34:48.477Z,23.13
2022-10-31T00:37:49.352Z,37.83
2022-10-31T00:40:50.489Z,30.38
2022-10-31T00:43:51.944Z,42.45
2022-10-31T00:46:53.139Z,25.00
2022-10-31T00:49:56.249Z,32.85
2022-10-31T00:52:57.981Z,37.42
2022-10-31T00:55:58.928Z,46.05
2022-10-31T00:59:00.113Z,37.10
2022-10-31T01:02:00.965Z,50.78
2022-10-31T01:05:02.115Z,237.73
2022-10-31T01:08:03.434Z,183.80
2022-10-31T01:11:15.092Z,236.35
2022-10-31T01:14:16.044Z,305.33
2022-10-31T01:17:16.688Z,405.73
2022-10-31T01:20:18.947Z,201.05
2022-10-31T01:23:19.948Z,181.02
2022-10-31T01:26:28.191Z,162.20
2022-10-31T01:29:28.973Z,143.93
2022-10-31T01:32:30.023Z,113.07
2022-10-31T01:35:31.566Z,148.82
2022-10-31T01:38:32.292Z,148.93
2022-10-31T01:41:37.660Z,159.75
2022-10-31T01:44:38.871Z,85.63
2022-10-31T01:47:47.647Z,127.72
2022-10-31T01:50:54.779Z,64.95
2022-10-31T01:54:01.396Z,100.75
2022-10-31T01:57:06.910Z,139.90
2022-10-31T02:00:11.751Z,102.55
2022-10-31T02:03:17.077Z,88.35
2022-10-31T02:06:47.893Z,78.80
2022-10-31T02:09:51.316Z,56.53
2022-10-31T02:12:58.567Z,41.50
2022-10-31T02:16:00.227Z,41.17
2022-10-31T02:19:02.180Z,44.60
2022-10-31T02:22:29.061Z,41.20
2022-10-31T02:26:23.785Z,437.00
2022-10-31T02:30:02.527Z,212.18
2022-10-31T02:33:19.290Z,497.23
2022-10-31T02:36:35.042Z,306.63
2022-10-31T02:39:57.504Z,229.93
2022-10-31T02:43:35.475Z,138.05
2022-10-31T02:46:55.986Z,174.75
2022-10-31T02:50:28.268Z,118.68
2022-10-31T02:53:35.062Z,120.88
2022-10-31T02:56:36.550Z,500.67
2022-10-31T02:59:46.791Z,307.88
2022-10-31T03:03:15.689Z,397.70
2022-10-31T03:06:40.456Z,330.45
2022-10-31T03:09:59.727Z,293.58
2022-10-31T03:13:16.190Z,239.05
2022-10-31T03:19:57.535Z,410.25
2022-10-31T03:23:04.205Z,381.77
2022-10-31T03:26:10.678Z,485.65
2022-10-31T03:29:18.976Z,222.70
2022-10-31T03:32:30.334Z,536.75
2022-10-31T03:35:34.434Z,165.95
2022-10-31T03:38:40.204Z,521.75
2022-10-31T03:41:48.029Z,74.85
2022-10-31T03:45:08.055Z,325.90
2022-10-31T03:48:09.543Z,274.80
2022-10-31T03:51:30.032Z,449.63
2022-10-31T03:54:36.865Z,290.65
2022-10-31T03:58:04.667Z,275.75
2022-10-31T04:01:12.711Z,325.08
2022-10-31T04:04:16.330Z,318.08
2022-10-31T04:07:19.514Z,117.82
2022-10-31T04:10:31.887Z,462.60
2022-10-31T04:13:38.454Z,227.02
2022-10-31T04:16:46.836Z,248.55
2022-10-31T04:19:47.610Z,355.90
2022-10-31T04:22:48.416Z,151.45
2022-10-31T04:25:49.225Z,287.48
2022-10-31T04:28:51.473Z,371.15
2022-10-31T04:31:52.676Z,87.32
2022-10-31T04:34:53.538Z,172.98
2022-10-31T04:37:54.650Z,110.35
2022-10-31T04:40:55.836Z,326.95
2022-10-31T04:44:19.101Z,191.18
2022-10-31T04:47:24.220Z,107.20
2022-10-31T04:50:25.599Z,222.65
2022-10-31T04:53:27.313Z,382.55
2022-10-31T04:57:00.698Z,532.20
2022-10-31T05:00:02.759Z,540.05
2022-10-31T05:03:04.659Z,665.25
2022-10-31T05:06:08.236Z,643.85
2022-10-31T05:09:10.812Z,463.92
2022-10-31T05:12:12.577Z,735.28
2022-10-31T05:15:51.600Z,348.23
2022-10-31T05:19:11.227Z,750.38
2022-10-31T05:22:30.332Z,318.40
2022-10-31T05:25:32.172Z,765.55
2022-10-31T05:28:37.308Z,769.63
2022-10-31T05:31:38.577Z,766.38
2022-10-31T05:34:41.824Z,632.97
2022-10-31T05:38:01.775Z,796.45
2022-10-31T05:41:02.753Z,502.90
2022-10-31T05:44:06.282Z,816.15
2022-10-31T05:47:14.511Z,720.05
2022-10-31T05:50:32.782Z,938.17
2022-10-31T05:53:43.085Z,834.75
2022-10-31T05:56:44.318Z,674.92
2022-10-31T05:59:45.066Z,841.50
2022-10-31T06:02:46.528Z,858.35
2022-10-31T06:05:52.527Z,965.22
2022-10-31T06:08:58.487Z,764.80
2022-10-31T06:12:00.690Z,941.38
2022-10-31T06:15:39.505Z,830.03
2022-10-31T06:18:42.675Z,522.28
2022-10-31T06:21:43.987Z,536.35
2022-10-31T06:24:44.743Z,489.60
2022-10-31T06:28:03.051Z,574.53
2022-10-31T06:31:13.402Z,518.90
2022-10-31T06:34:14.685Z,417.75
2022-10-31T06:37:17.080Z,497.38
2022-10-31T06:40:21.474Z,434.60
2022-10-31T06:43:42.607Z,447.48
2022-10-31T06:47:07.503Z,468.88
2022-10-31T06:50:24.710Z,464.17
2022-10-31T06:53:30.688Z,449.30
2022-10-31T06:56:32.155Z,350.85
2022-10-31T06:59:34.179Z,478.10
2022-10-31T07:03:05.035Z,500.27
2022-10-31T07:06:08.372Z,529.60
2022-10-31T07:09:09.714Z,546.83
2022-10-31T07:12:10.663Z,351.67
2022-10-31T07:15:15.242Z,567.83
2022-10-31T07:18:16.144Z,426.75
2022-10-31T07:21:17.326Z,242.73
2022-10-31T07:24:18.029Z,341.52
2022-10-31T07:27:42.840Z,507.02
2022-10-31T07:30:52.376Z,440.75
2022-10-31T07:33:55.662Z,521.65
2022-10-31T07:37:02.158Z,326.23
2022-10-31T07:40:06.685Z,454.02
2022-10-31T07:43:11.553Z,493.90
2022-10-31T07:46:31.565Z,436.13
2022-10-31T07:49:50.808Z,371.80
2022-10-31T07:53:12.847Z,457.20
2022-10-31T07:56:23.658Z,500.10
2022-10-31T07:59:24.389Z,513.47
2022-10-31T08:02:26.921Z,530.70
2022-10-31T08:05:50.452Z,401.45
2022-10-31T08:09:14.412Z,483.45
2022-10-31T08:12:16.959Z,485.17
2022-10-31T08:15:17.949Z,552.00
2022-10-31T08:18:19.054Z,556.25
2022-10-31T08:21:20.340Z,472.35
2022-10-31T08:24:23.398Z,453.77
2022-10-31T08:27:24.496Z,421.58
2022-10-31T08:30:32.072Z,482.88
2022-10-31T08:33:54.386Z,420.88
2022-10-31T08:37:27.564Z,641.58
2022-10-31T08:40:33.567Z,466.75
2022-10-31T08:43:37.674Z,194.55
2022-10-31T08:46:38.362Z,354.52
2022-10-31T08:49:39.202Z,155.48
2022-10-31T08:53:03.679Z,297.85
2022-10-31T08:56:01.744Z,221.57
2022-10-31T08:59:02.721Z,82.15
2022-10-31T09:02:17.999Z,100.80
2022-10-31T09:05:19.194Z,241.40
2022-10-31T09:08:20.139Z,112.93
2022-10-31T09:11:22.457Z,392.13
2022-10-31T09:18:13.337Z,337.73
2022-10-31T09:21:34.638Z,387.50
2022-10-31T09:24:35.496Z,401.70
2022-10-31T09:27:36.737Z,430.42
2022-10-31T09:30:38.556Z,241.73
2022-10-31T09:33:39.641Z,103.22
2022-10-31T09:37:03.653Z,67.00
2022-10-31T09:40:05.755Z,59.70
2022-10-31T09:43:38.436Z,53.53
2022-10-31T09:50:28.494Z,51.55
2022-10-31T09:53:58.687Z,87.95
2022-10-31T09:57:03.772Z,101.65
2022-10-31T10:00:08.698Z,55.17
2022-10-31T10:03:40.316Z,73.43
2022-10-31T10:07:15.104Z,244.25
2022-10-31T10:10:42.335Z,65.03
2022-10-31T10:14:39.940Z,77.78
2022-10-31T10:18:31.764Z,54.92
2022-10-31T10:22:07.898Z,67.53
2022-10-31T10:25:40.692Z,26.20
2022-10-31T10:28:48.447Z,32.67
2022-10-31T10:31:54.919Z,26.27
2022-10-31T10:35:39.498Z,21.75
2022-10-31T10:38:53.482Z,25.63
2022-10-31T10:42:16.919Z,22.45
2022-10-31T10:45:40.120Z,16.63
2022-10-31T10:49:20.850Z,18.80
2022-10-31T10:52:49.234Z,19.13
2022-10-31T10:56:17.884Z,16.98
2022-10-31T10:59:23.269Z,16.70
2022-10-31T11:02:28.680Z,16.58
2022-10-31T11:05:59.598Z,14.60
2022-10-31T11:09:11.687Z,14.20
2022-10-31T11:12:33.822Z,14.20
2022-10-31T11:16:03.757Z,13.85
2022-10-31T11:19:25.007Z,14.30
2022-10-31T11:22:26.057Z,14.82
2022-10-31T11:25:27.987Z,16.13
2022-10-31T11:28:33.328Z,15.13
2022-10-31T11:31:36.732Z,17.05
2022-10-31T11:34:46.348Z,17.27
2022-10-31T11:37:54.473Z,17.17
2022-10-31T11:41:01.190Z,17.98
2022-10-31T11:44:18.938Z,18.10
2022-10-31T11:47:29.900Z,17.92
2022-10-31T11:50:42.185Z,24.83
2022-10-31T11:53:58.190Z,26.60
2022-10-31T11:57:04.058Z,19.52
2022-10-31T12:00:22.874Z,19.30
2022-10-31T12:03:23.926Z,18.95
2022-10-31T12:06:38.066Z,18.67
2022-10-31T12:09:41.310Z,17.92
2022-10-31T12:13:11.065Z,17.75
2022-10-31T12:16:34.493Z,18.95
2022-10-31T12:20:01.841Z,18.70
2022-10-31T12:23:37.642Z,26.40
2022-10-31T12:26:50.100Z,17.65
2022-10-31T12:30:16.755Z,17.45
2022-10-31T12:33:45.626Z,17.92
2022-10-31T12:37:12.421Z,19.85
2022-10-31T12:40:48.597Z,28.55
2022-10-31T12:44:30.610Z,26.13
2022-10-31T12:47:37.136Z,21.10
2022-10-31T12:50:58.669Z,29.63
2022-10-31T12:54:09.342Z,23.55
2022-10-31T12:57:37.499Z,21.02
2022-10-31T13:00:45.515Z,20.85
2022-10-31T13:04:15.557Z,21.30
2022-10-31T13:08:21.464Z,21.02
2022-10-31T13:11:33.548Z,24.42
2022-10-31T13:14:45.953Z,18.23
2022-10-31T13:18:02.202Z,21.45
2022-10-31T13:21:13.949Z,19.60
2022-10-31T13:24:35.816Z,22.38
2022-10-31T13:27:55.970Z,18.00
2022-10-31T13:30:57.182Z,16.95
2022-10-31T13:34:10.053Z,18.05
2022-10-31T13:37:40.366Z,17.20
2022-10-31T13:41:07.595Z,17.85
2022-10-31T13:44:33.273Z,18.10
2022-10-31T13:47:37.538Z,17.65
2022-10-31T13:50:42.206Z,17.35
2022-10-31T13:54:00.704Z,15.38
2022-10-31T13:57:02.106Z,16.73
2022-10-31T14:00:27.803Z,15.68
2022-10-31T14:03:49.769Z,21.17
2022-10-31T14:07:13.393Z,21.10
2022-10-31T14:10:40.171Z,43.85
2022-10-31T14:16:57.762Z,19.75
2022-10-31T14:20:25.218Z,17.77
2022-10-31T14:23:33.100Z,18.30
2022-10-31T14:26:37.345Z,23.85
2022-10-31T14:29:38.130Z,18.35
2022-10-31T14:32:39.039Z,18.33
2022-10-31T14:36:31.239Z,27.33
2022-10-31T14:39:52.135Z,25.90
2022-10-31T14:43:36.260Z,20.00
2022-10-31T14:47:07.094Z,17.15
2022-10-31T14:50:37.529Z,17.30
2022-10-31T14:53:50.680Z,17.27
2022-10-31T14:57:00.430Z,25.95
2022-10-31T15:00:09.797Z,47.03
2022-10-31T15:03:23.876Z,25.20
2022-10-31T15:06:27.031Z,24.95
2022-10-31T15:09:33.650Z,18.35
2022-10-31T15:12:39.542Z,17.83
2022-10-31T15:15:41.893Z,17.53
2022-10-31T15:19:01.895Z,24.50
2022-10-31T15:22:02.853Z,18.42
2022-10-31T15:25:04.537Z,17.27
2022-10-31T15:28:24.100Z,19.27
2022-10-31T15:31:24.943Z,19.13
2022-10-31T15:34:53.388Z,18.58
2022-10-31T15:37:54.729Z,18.42
2022-10-31T15:41:56.906Z,18.25
2022-10-31T15:45:13.182Z,28.33
2022-10-31T15:48:24.370Z,33.85
2022-10-31T15:51:33.787Z,38.20
2022-10-31T15:54:36.077Z,29.50
2022-10-31T15:57:50.077Z,16.58
2022-10-31T16:01:21.691Z,18.95
2022-10-31T16:04:27.276Z,22.35
2022-10-31T16:07:31.338Z,21.77
2022-10-31T16:10:36.475Z,29.67
2022-10-31T16:13:43.437Z,23.00
2022-10-31T16:16:50.788Z,29.55
2022-10-31T16:20:04.391Z,32.20
2022-10-31T16:23:05.499Z,23.73
2022-10-31T16:26:09.297Z,24.95
2022-10-31T16:29:46.649Z,21.25
2022-10-31T16:33:00.988Z,28.08
2022-10-31T16:36:34.399Z,35.95
2022-10-31T16:39:36.578Z,46.40
2022-10-31T16:42:37.358Z,26.55
2022-10-31T16:45:43.080Z,28.70
2022-10-31T16:48:44.235Z,23.95
2022-10-31T16:51:45.268Z,34.83
2022-10-31T16:54:46.306Z,27.17
2022-10-31T16:57:59.283Z,40.80
2022-10-31T17:01:02.894Z,42.58
2022-10-31T17:04:03.875Z,24.67
2022-10-31T17:07:04.650Z,31.05
2022-10-31T17:10:06.238Z,37.83
2022-10-31T17:13:15.634Z,46.33
2022-10-31T17:16:17.469Z,41.05
2022-10-31T17:19:18.602Z,42.55
2022-10-31T17:22:19.391Z,52.00
2022-10-31T17:25:25.072Z,66.05
2022-10-31T17:28:26.922Z,62.25
2022-10-31T17:31:32.174Z,59.72
2022-10-31T17:34:32.933Z,65.95
2022-10-31T17:37:33.822Z,69.78
2022-10-31T17:40:37.435Z,86.20
2022-10-31T17:43:39.131Z,75.18
2022-10-31T17:46:40.332Z,56.17
2022-10-31T17:49:41.124Z,67.72
2022-10-31T17:52:41.918Z,63.35
2022-10-31T17:55:42.831Z,60.67
2022-10-31T17:58:44.001Z,76.57
2022-10-31T18:01:45.226Z,71.07
2022-10-31T18:04:46.192Z,61.80
2022-10-31T18:07:51.278Z,87.57
2022-10-31T18:10:52.586Z,80.72
2022-10-31T18:13:58.849Z,88.75
2022-10-31T18:16:59.904Z,88.53
2022-10-31T18:20:00.786Z,90.47
2022-10-31T18:23:01.475Z,84.15
2022-10-31T18:26:02.425Z,77.25
2022-10-31T18:29:04.228Z,81.93
2022-10-31T18:32:09.531Z,73.90
2022-10-31T18:35:11.081Z,96.68
2022-10-31T18:38:12.156Z,83.82
2022-10-31T18:41:14.985Z,74.20
2022-10-31T18:44:15.923Z,77.93
2022-10-31T18:47:17.780Z,67.38
2022-10-31T18:50:19.137Z,73.40
2022-10-31T18:53:19.975Z,65.47
2022-10-31T18:56:22.073Z,65.57
2022-10-31T18:59:23.136Z,74.78
2022-10-31T19:02:24.167Z,70.50
2022-10-31T19:05:25.616Z,55.58
2022-10-31T19:11:47.922Z,59.50
2022-10-31T19:14:49.307Z,60.03
2022-10-31T19:17:50.813Z,81.07
2022-10-31T19:20:51.778Z,78.32
2022-10-31T19:23:56.486Z,82.03
2022-10-31T19:26:58.550Z,87.57
2022-10-31T19:30:01.267Z,99.88
2022-10-31T19:33:02.262Z,78.97
2022-10-31T19:36:11.380Z,64.13
2022-10-31T19:39:12.705Z,59.67
2022-10-31T19:42:13.830Z,54.15
2022-10-31T19:45:14.755Z,45.33
2022-10-31T19:48:17.137Z,54.35
2022-10-31T19:51:21.708Z,51.55
2022-10-31T19:54:23.159Z,42.28
2022-10-31T19:57:48.477Z,48.53
2022-10-31T20:00:45.355Z,49.80
2022-10-31T20:03:47.261Z,51.42
2022-10-31T20:06:48.520Z,45.55
2022-10-31T20:09:49.502Z,45.53
2022-10-31T20:12:50.221Z,50.47
2022-10-31T20:15:52.613Z,50.75
2022-10-31T20:18:54.304Z,49.55
2022-10-31T20:21:55.263Z,57.25
2022-10-31T20:24:56.601Z,55.30
2022-10-31T20:27:57.346Z,59.13
2022-10-31T20:31:00.379Z,53.60
2022-10-31T20:34:01.375Z,53.03
2022-10-31T20:37:02.137Z,56.40
2022-10-31T20:40:03.851Z,58.25
2022-10-31T20:43:05.932Z,58.35
2022-10-31T20:46:19.713Z,55.85
2022-10-31T20:49:20.556Z,54.65
2022-10-31T20:52:21.251Z,58.47
2022-10-31T20:55:22.214Z,54.92
2022-10-31T20:58:22.925Z,52.38
2022-10-31T21:01:31.332Z,53.75
2022-10-31T21:04:32.599Z,53.25
2022-10-31T21:07:33.225Z,56.97
2022-10-31T21:10:34.102Z,60.08
2022-10-31T21:13:41.424Z,60.75
2022-10-31T21:16:42.648Z,52.88
2022-10-31T21:19:43.484Z,48.22
2022-10-31T21:22:44.261Z,56.75
2022-10-31T21:25:45.777Z,46.53
2022-10-31T21:28:47.214Z,42.30
2022-10-31T21:31:48.806Z,44.08
2022-10-31T21:34:50.513Z,44.65
2022-10-31T21:37:51.608Z,43.95
2022-10-31T21:41:03.258Z,51.25
2022-10-31T21:44:05.151Z,68.63
2022-10-31T21:47:06.051Z,60.60
2022-10-31T21:50:07.979Z,65.32
2022-10-31T21:53:27.766Z,59.22
2022-10-31T21:56:29.707Z,51.20
2022-10-31T21:59:31.179Z,71.10
2022-10-31T22:02:32.046Z,142.48
2022-10-31T22:05:35.007Z,68.82
2022-10-31T22:08:36.446Z,68.68
2022-10-31T22:11:37.547Z,78.97
2022-10-31T22:14:38.721Z,99.88
2022-10-31T22:17:39.513Z,92.13
2022-10-31T22:20:40.163Z,98.20
2022-10-31T22:23:42.736Z,101.35
2022-10-31T22:26:44.402Z,107.25
2022-10-31T22:29:45.316Z,110.45
2022-10-31T22:32:46.493Z,114.90
2022-10-31T22:35:47.217Z,104.72
2022-10-31T22:38:49.307Z,105.38
2022-10-31T22:41:49.989Z,109.60
2022-10-31T22:44:51.360Z,126.50
2022-10-31T22:47:52.624Z,194.52
2022-10-31T22:50:54.017Z,440.17
2022-10-31T22:53:57.979Z,651.88
2022-10-31T22:56:58.897Z,827.65
2022-10-31T22:59:59.630Z,813.08
2022-10-31T23:03:00.431Z,670.55
2022-10-31T23:06:03.995Z,735.05
2022-10-31T23:09:07.406Z,682.92
2022-10-31T23:12:26.810Z,255.65
2022-10-31T23:15:28.089Z,523.78
2022-10-31T23:18:49.112Z,599.70
2022-10-31T23:22:05.065Z,616.00
2022-10-31T23:25:06.638Z,535.55
2022-10-31T23:28:07.476Z,323.67
2022-10-31T23:31:08.312Z,441.17
2022-10-31T23:34:09.022Z,529.35
2022-10-31T23:37:10.423Z,526.92
2022-10-31T23:40:12.722Z,275.67
2022-10-31T23:43:13.918Z,367.77
2022-10-31T23:46:14.675Z,750.50
2022-10-31T23:49:15.477Z,402.30
2022-10-31T23:52:16.911Z,588.08
2022-10-31T23:55:17.555Z,548.85
2022-10-31T23:58:18.373Z,388.10
